createdAt,value
2023-01-01T00:00:45.171Z,36.03
2023-01-01T00:03:12.480Z,38.78
2023-01-01T00:05:40.390Z,37.78
2023-01-01T00:08:07.984Z,36.28
2023-01-01T00:10:35.274Z,35.22
2023-01-01T00:13:02.552Z,34.45
2023-01-01T00:15:29.956Z,36.10
2023-01-01T00:17:57.840Z,33.08
2023-01-01T00:20:29.964Z,33.67
2023-01-01T00:23:00.563Z,36.08
2023-01-01T00:25:27.915Z,31.15
2023-01-01T00:27:56.733Z,29.70
2023-01-01T00:30:25.088Z,29.55
2023-01-01T00:32:55.430Z,29.33
2023-01-01T00:35:24.527Z,32.60
2023-01-01T00:37:52.413Z,31.05
2023-01-01T00:40:19.886Z,30.15
2023-01-01T00:42:47.179Z,27.52
2023-01-01T00:45:20.997Z,29.08
2023-01-01T00:47:53.104Z,28.48
2023-01-01T00:50:21.611Z,28.00
2023-01-01T00:52:49.328Z,27.88
2023-01-01T00:55:17.123Z,29.55
2023-01-01T00:57:44.512Z,26.40
2023-01-01T01:00:12.830Z,25.77
2023-01-01T01:02:40.380Z,28.02
2023-01-01T01:05:08.329Z,27.27
2023-01-01T01:07:38.127Z,23.42
2023-01-01T01:10:06.107Z,25.05
2023-01-01T01:12:35.476Z,25.77
2023-01-01T01:15:03.403Z,25.73
2023-01-01T01:17:30.730Z,24.08
2023-01-01T01:19:58.077Z,25.05
2023-01-01T01:22:28.769Z,21.98
2023-01-01T01:24:57.297Z,23.98
2023-01-01T01:27:24.802Z,22.48
2023-01-01T01:29:52.493Z,22.90
2023-01-01T01:32:20.114Z,20.95
2023-01-01T01:34:48.587Z,21.23
2023-01-01T01:37:15.944Z,19.30
2023-01-01T01:39:43.257Z,20.15
2023-01-01T01:42:18.406Z,22.50
2023-01-01T01:44:54.231Z,19.23
2023-01-01T01:47:21.442Z,20.02
2023-01-01T01:49:51.253Z,19.27
2023-01-01T01:52:18.524Z,18.85
2023-01-01T01:54:46.339Z,18.73
2023-01-01T01:57:14.629Z,16.52
2023-01-01T01:59:47.750Z,19.13
2023-01-01T02:02:34.614Z,16.58
2023-01-01T02:05:02.746Z,16.40
2023-01-01T02:07:32.774Z,16.23
2023-01-01T02:10:01.456Z,16.77
2023-01-01T02:12:28.950Z,16.38
2023-01-01T02:14:56.517Z,16.90
2023-01-01T02:17:39.003Z,15.75
2023-01-01T02:20:26.631Z,14.20
2023-01-01T02:23:21.764Z,17.38
2023-01-01T02:26:03.954Z,15.40
2023-01-01T02:29:03.749Z,13.82
2023-01-01T02:31:37.947Z,12.73
2023-01-01T02:34:10.932Z,14.43
2023-01-01T02:36:44.064Z,15.40
2023-01-01T02:39:13.853Z,14.95
2023-01-01T02:41:47.069Z,12.95
2023-01-01T02:44:15.282Z,12.55
2023-01-01T02:46:42.575Z,15.45
2023-01-01T02:49:11.649Z,14.23
2023-01-01T02:52:01.329Z,11.98
2023-01-01T02:54:42.171Z,11.98
2023-01-01T02:57:32.384Z,13.10
2023-01-01T03:00:19.387Z,12.90
2023-01-01T03:02:59.130Z,13.15
2023-01-01T03:06:15.956Z,12.15
2023-01-01T03:09:08.115Z,12.57
2023-01-01T03:11:56.449Z,12.23
2023-01-01T03:15:06.912Z,11.07
2023-01-01T03:17:39.316Z,11.45
2023-01-01T03:20:16.464Z,11.75
2023-01-01T03:25:16.521Z,13.32
2023-01-01T03:27:49.813Z,13.95
2023-01-01T03:30:20.057Z,11.60
2023-01-01T03:33:01.524Z,12.02
2023-01-01T03:35:37.461Z,11.10
2023-01-01T03:38:10.860Z,13.00
2023-01-01T03:40:39.804Z,13.43
2023-01-01T03:43:14.003Z,10.68
2023-01-01T03:45:49.765Z,10.13
2023-01-01T03:48:17.227Z,9.73
2023-01-01T03:51:17.514Z,8.95
2023-01-01T03:53:45.080Z,8.95
2023-01-01T03:56:37.468Z,9.98
2023-01-01T03:59:30.026Z,9.88
2023-01-01T04:02:03.102Z,9.95
2023-01-01T04:04:31.549Z,8.82
2023-01-01T04:07:09.283Z,9.13
2023-01-01T04:09:47.127Z,12.65
2023-01-01T04:12:16.653Z,10.60
2023-01-01T04:14:44.368Z,8.05
2023-01-01T04:17:13.126Z,9.18
2023-01-01T04:19:40.382Z,7.80
2023-01-01T04:22:07.788Z,7.30
2023-01-01T04:24:35.187Z,8.00
2023-01-01T04:27:02.486Z,10.63
2023-01-01T04:29:29.853Z,9.00
2023-01-01T04:31:57.092Z,8.10
2023-01-01T04:34:24.794Z,9.10
2023-01-01T04:36:52.079Z,6.47
2023-01-01T04:39:19.298Z,7.55
2023-01-01T04:41:47.922Z,10.05
2023-01-01T04:44:15.184Z,8.40
2023-01-01T04:46:42.712Z,6.35
2023-01-01T04:49:10.050Z,6.57
2023-01-01T04:51:37.376Z,7.13
2023-01-01T04:54:04.733Z,7.80
2023-01-01T04:56:32.012Z,6.80
2023-01-01T04:58:59.302Z,6.53
2023-01-01T05:01:30.758Z,7.78
2023-01-01T05:03:59.032Z,5.95
2023-01-01T05:06:27.372Z,6.30
2023-01-01T05:08:55.932Z,7.32
2023-01-01T05:11:28.286Z,5.88
2023-01-01T05:13:58.549Z,6.13
2023-01-01T05:16:28.334Z,6.63
2023-01-01T05:18:56.610Z,5.82
2023-01-01T05:21:31.671Z,6.63
2023-01-01T05:24:01.387Z,5.35
2023-01-01T05:26:31.853Z,7.70
2023-01-01T05:29:00.557Z,6.07
2023-01-01T05:31:30.690Z,7.03
2023-01-01T05:36:30.753Z,6.28
2023-01-01T05:38:59.136Z,7.03
2023-01-01T05:41:27.065Z,5.45
2023-01-01T05:43:54.668Z,5.30
2023-01-01T05:46:23.943Z,5.50
2023-01-01T05:48:53.364Z,5.22
2023-01-01T05:51:25.821Z,6.00
2023-01-01T05:53:54.990Z,4.72
2023-01-01T05:56:22.822Z,5.97
2023-01-01T05:58:50.208Z,4.85
2023-01-01T06:01:21.181Z,4.97
2023-01-01T06:03:49.030Z,7.38
2023-01-01T06:06:19.392Z,6.13
2023-01-01T06:09:01.156Z,4.47
2023-01-01T06:11:28.624Z,5.97
2023-01-01T06:13:58.096Z,6.63
2023-01-01T06:16:27.063Z,4.68
2023-01-01T06:18:54.677Z,7.03
2023-01-01T06:21:24.697Z,4.78
2023-01-01T06:23:52.579Z,5.68
2023-01-01T06:26:23.325Z,4.85
2023-01-01T06:28:51.713Z,4.65
2023-01-01T06:31:21.708Z,5.75
2023-01-01T06:33:50.878Z,4.90
2023-01-01T06:36:21.204Z,4.20
2023-01-01T06:38:51.501Z,4.68
2023-01-01T06:41:21.592Z,3.95
2023-01-01T06:43:49.780Z,5.57
2023-01-01T06:46:19.730Z,4.45
2023-01-01T06:48:49.040Z,4.20
2023-01-01T06:51:22.016Z,5.28
2023-01-01T06:53:51.052Z,4.88
2023-01-01T06:56:19.314Z,7.57
2023-01-01T06:58:46.788Z,3.95
2023-01-01T07:01:17.264Z,4.38
2023-01-01T07:03:50.371Z,5.18
2023-01-01T07:06:17.688Z,4.45
2023-01-01T07:08:44.944Z,4.90
2023-01-01T07:11:12.378Z,4.13
2023-01-01T07:13:39.658Z,4.75
2023-01-01T07:16:12.613Z,5.13
2023-01-01T07:18:40.738Z,4.30
2023-01-01T07:21:32.680Z,5.50
2023-01-01T07:24:02.381Z,5.97
2023-01-01T07:26:30.932Z,4.35
2023-01-01T07:29:04.545Z,3.50
2023-01-01T07:31:35.086Z,5.10
2023-01-01T07:34:02.651Z,4.05
2023-01-01T07:36:30.021Z,5.85
2023-01-01T07:38:57.270Z,4.53
2023-01-01T07:41:24.577Z,5.18
2023-01-01T07:43:51.842Z,4.38
2023-01-01T07:46:19.420Z,4.63
2023-01-01T07:48:46.855Z,3.85
2023-01-01T07:51:14.229Z,4.82
2023-01-01T07:53:41.527Z,4.65
2023-01-01T07:56:09.326Z,5.20
2023-01-01T07:58:40.439Z,3.78
2023-01-01T08:01:13.600Z,5.20
2023-01-01T08:03:41.084Z,5.40
2023-01-01T08:06:10.322Z,4.40
2023-01-01T08:08:38.110Z,5.47
2023-01-01T08:11:06.113Z,4.57
2023-01-01T08:13:33.385Z,6.10
2023-01-01T08:16:00.834Z,4.65
2023-01-01T08:18:28.200Z,5.75
2023-01-01T08:20:57.500Z,5.57
2023-01-01T08:23:24.950Z,5.30
2023-01-01T08:25:52.182Z,4.97
2023-01-01T08:28:19.546Z,5.07
2023-01-01T08:30:46.807Z,7.63
2023-01-01T08:33:14.171Z,7.55
2023-01-01T08:35:43.055Z,6.35
2023-01-01T08:38:12.541Z,7.00
2023-01-01T08:40:40.085Z,8.57
2023-01-01T08:43:07.565Z,7.90
2023-01-01T08:45:34.904Z,9.77
2023-01-01T08:48:02.206Z,8.23
2023-01-01T08:50:29.486Z,10.68
2023-01-01T08:52:59.124Z,9.73
2023-01-01T08:55:26.657Z,9.60
2023-01-01T08:57:53.935Z,10.32
2023-01-01T09:00:21.736Z,10.98
2023-01-01T09:02:49.079Z,12.25
2023-01-01T09:05:16.540Z,11.93
2023-01-01T09:07:43.858Z,13.40
2023-01-01T09:10:11.142Z,12.07
2023-01-01T09:12:38.475Z,11.43
2023-01-01T09:15:06.584Z,12.23
2023-01-01T09:17:33.929Z,14.80
2023-01-01T09:20:01.430Z,13.38
2023-01-01T09:22:28.678Z,15.13
2023-01-01T09:24:55.993Z,14.98
2023-01-01T09:27:23.309Z,16.95
2023-01-01T09:29:50.625Z,17.02
2023-01-01T09:32:18.684Z,15.35
2023-01-01T09:34:50.477Z,16.90
2023-01-01T09:37:19.798Z,17.23
2023-01-01T09:39:47.423Z,15.07
2023-01-01T09:42:33.559Z,16.75
2023-01-01T09:45:12.538Z,16.42
2023-01-01T09:47:54.255Z,16.90
2023-01-01T09:50:37.187Z,17.40
2023-01-01T09:53:12.119Z,20.55
2023-01-01T09:55:56.309Z,22.42
2023-01-01T09:58:43.906Z,18.92
2023-01-01T10:01:46.036Z,20.63
2023-01-01T10:04:28.553Z,20.40
2023-01-01T10:07:19.734Z,21.05
2023-01-01T10:10:23.883Z,18.73
2023-01-01T10:13:18.094Z,19.73
2023-01-01T10:15:57.407Z,22.30
2023-01-01T10:18:29.953Z,20.60
2023-01-01T10:21:03.647Z,19.42
2023-01-01T10:23:39.449Z,18.00
2023-01-01T10:26:15.869Z,19.55
2023-01-01T10:28:47.065Z,18.90
2023-01-01T10:31:34.696Z,20.60
2023-01-01T10:34:34.457Z,20.13
2023-01-01T10:37:02.569Z,19.08
2023-01-01T10:39:30.023Z,19.30
2023-01-01T10:41:58.852Z,18.55
2023-01-01T10:44:32.047Z,19.73
2023-01-01T10:47:05.038Z,20.13
2023-01-01T10:49:32.358Z,20.52
2023-01-01T10:51:59.734Z,21.25
2023-01-01T10:54:34.687Z,19.33
2023-01-01T10:57:20.217Z,21.00
2023-01-01T10:59:53.845Z,19.55
2023-01-01T11:02:26.580Z,20.67
2023-01-01T11:05:22.256Z,19.92
2023-01-01T11:07:50.162Z,20.27
2023-01-01T11:10:23.391Z,20.40
2023-01-01T11:13:08.125Z,20.42
2023-01-01T11:15:38.250Z,21.35
2023-01-01T11:18:15.266Z,21.85
2023-01-01T11:20:43.710Z,18.98
2023-01-01T11:23:33.896Z,21.70
2023-01-01T11:26:24.653Z,21.85
2023-01-01T11:29:28.299Z,21.33
2023-01-01T11:31:57.099Z,21.33
2023-01-01T11:34:41.209Z,25.90
2023-01-01T11:37:30.034Z,23.07
2023-01-01T11:39:58.859Z,28.13
2023-01-01T11:42:28.796Z,24.83
2023-01-01T11:44:59.408Z,28.30
2023-01-01T11:47:36.651Z,26.55
2023-01-01T11:50:22.488Z,27.33
2023-01-01T11:52:54.737Z,27.15
2023-01-01T11:55:31.172Z,28.38
2023-01-01T11:58:25.971Z,26.58
2023-01-01T12:01:12.463Z,27.48
2023-01-01T12:04:01.785Z,27.52
2023-01-01T12:06:49.117Z,30.95
2023-01-01T12:09:29.341Z,28.85
2023-01-01T12:12:13.237Z,28.52
2023-01-01T12:14:59.058Z,25.38
2023-01-01T12:17:49.887Z,23.80
2023-01-01T12:20:29.120Z,28.23
2023-01-01T12:22:58.875Z,28.73
2023-01-01T12:25:38.756Z,27.98
2023-01-01T12:28:29.813Z,36.85
2023-01-01T12:31:10.343Z,61.15
2023-01-01T12:34:01.119Z,54.08
2023-01-01T12:36:31.501Z,58.97
2023-01-01T12:39:32.855Z,59.20
2023-01-01T12:42:33.728Z,60.60
2023-01-01T12:45:31.998Z,60.13
2023-01-01T12:47:59.249Z,60.28
2023-01-01T12:50:49.514Z,52.72
2023-01-01T12:54:00.737Z,68.07
2023-01-01T12:56:45.189Z,53.42
2023-01-01T12:59:22.518Z,59.75
2023-01-01T13:01:51.549Z,61.33
2023-01-01T13:04:21.599Z,61.00
2023-01-01T13:07:09.587Z,71.25
2023-01-01T13:09:45.140Z,74.95
2023-01-01T13:12:17.398Z,58.35
2023-01-01T13:14:46.960Z,49.42
2023-01-01T13:17:29.481Z,62.63
2023-01-01T13:20:19.657Z,54.25
2023-01-01T13:22:48.544Z,52.08
2023-01-01T13:25:16.108Z,49.08
2023-01-01T13:28:03.124Z,49.05
2023-01-01T13:30:39.694Z,55.35
2023-01-01T13:33:31.097Z,41.30
2023-01-01T13:36:11.816Z,54.92
2023-01-01T13:38:56.591Z,38.55
2023-01-01T13:41:46.260Z,44.55
2023-01-01T13:44:19.791Z,49.03
2023-01-01T13:47:30.261Z,55.15
2023-01-01T13:50:15.866Z,50.20
2023-01-01T13:53:09.114Z,36.28
2023-01-01T13:55:57.900Z,39.88
2023-01-01T13:58:55.711Z,40.47
2023-01-01T14:01:44.728Z,44.33
2023-01-01T14:04:54.226Z,47.53
2023-01-01T14:07:51.667Z,46.38
2023-01-01T14:10:37.619Z,40.28
2023-01-01T14:13:10.654Z,42.70
2023-01-01T14:15:59.317Z,41.05
2023-01-01T14:18:40.380Z,37.92
2023-01-01T14:21:16.035Z,38.15
2023-01-01T14:23:50.113Z,36.53
2023-01-01T14:26:23.118Z,36.92
2023-01-01T14:28:58.480Z,42.55
2023-01-01T14:31:34.647Z,40.03
2023-01-01T14:34:13.188Z,34.35
2023-01-01T14:36:51.350Z,33.38
2023-01-01T14:39:27.986Z,30.90
2023-01-01T14:42:08.739Z,32.13
2023-01-01T14:44:42.523Z,33.15
2023-01-01T14:47:28.966Z,39.23
2023-01-01T14:50:02.764Z,28.50
2023-01-01T14:52:31.462Z,29.60
2023-01-01T14:55:00.508Z,30.08
2023-01-01T14:57:31.293Z,26.98
2023-01-01T14:59:58.790Z,31.30
2023-01-01T15:02:37.627Z,24.58
2023-01-01T15:05:37.444Z,24.88
2023-01-01T15:08:07.687Z,24.75
2023-01-01T15:10:38.064Z,24.85
2023-01-01T15:13:07.310Z,27.42
2023-01-01T15:15:47.175Z,21.25
2023-01-01T15:18:36.174Z,21.60
2023-01-01T15:21:07.541Z,23.38
2023-01-01T15:23:36.082Z,23.42
2023-01-01T15:26:07.284Z,27.50
2023-01-01T15:28:35.345Z,23.17
2023-01-01T15:31:02.700Z,20.48
2023-01-01T15:33:30.014Z,24.73
2023-01-01T15:36:02.776Z,24.05
2023-01-01T15:38:34.566Z,22.63
2023-01-01T15:41:22.124Z,19.38
2023-01-01T15:43:49.390Z,19.40
2023-01-01T15:46:22.665Z,20.73
2023-01-01T15:51:24.799Z,21.35
2023-01-01T15:54:01.532Z,19.77
2023-01-01T15:56:32.265Z,18.23
2023-01-01T15:59:36.345Z,19.42
2023-01-01T16:02:30.278Z,22.02
2023-01-01T16:04:58.037Z,21.15
2023-01-01T16:07:27.189Z,21.00
2023-01-01T16:09:58.119Z,20.55
2023-01-01T16:12:25.621Z,19.85
2023-01-01T16:14:52.956Z,21.67
2023-01-01T16:17:21.222Z,23.17
2023-01-01T16:19:51.567Z,20.90
2023-01-01T16:22:20.100Z,18.48
2023-01-01T16:24:47.414Z,20.58
2023-01-01T16:27:14.686Z,18.02
2023-01-01T16:29:43.547Z,21.25
2023-01-01T16:32:18.315Z,18.63
2023-01-01T16:34:45.835Z,18.63
2023-01-01T16:37:13.267Z,21.83
2023-01-01T16:39:40.521Z,20.95
2023-01-01T16:42:11.919Z,23.42
2023-01-01T16:44:42.370Z,19.83
2023-01-01T16:47:10.500Z,19.77
2023-01-01T16:49:37.906Z,18.60
2023-01-01T16:52:05.394Z,20.95
2023-01-01T16:54:33.561Z,18.27
2023-01-01T16:57:00.945Z,22.05
2023-01-01T16:59:28.184Z,21.65
2023-01-01T17:01:55.543Z,19.80
2023-01-01T17:04:22.978Z,22.15
2023-01-01T17:06:50.253Z,23.40
2023-01-01T17:09:17.606Z,19.50
2023-01-01T17:11:46.033Z,21.33
2023-01-01T17:14:13.300Z,19.10
2023-01-01T17:16:40.671Z,21.10
2023-01-01T17:19:15.499Z,19.27
2023-01-01T17:21:45.423Z,18.55
2023-01-01T17:24:12.887Z,20.23
2023-01-01T17:26:40.132Z,19.30
2023-01-01T17:29:07.691Z,19.40
2023-01-01T17:31:35.265Z,18.10
2023-01-01T17:34:02.559Z,22.75
2023-01-01T17:36:30.399Z,18.75
2023-01-01T17:38:57.770Z,22.25
2023-01-01T17:41:25.705Z,18.17
2023-01-01T17:43:53.128Z,19.83
2023-01-01T17:46:31.096Z,18.48
2023-01-01T17:48:59.011Z,19.48
2023-01-01T17:51:26.831Z,18.63
2023-01-01T17:53:55.226Z,18.00
2023-01-01T17:56:23.474Z,20.58
2023-01-01T17:58:52.792Z,19.73
2023-01-01T18:01:23.252Z,18.02
2023-01-01T18:03:52.866Z,16.35
2023-01-01T18:06:20.434Z,18.25
2023-01-01T18:08:48.085Z,17.70
2023-01-01T18:11:15.408Z,17.15
2023-01-01T18:13:42.695Z,16.85
2023-01-01T18:16:10.563Z,15.77
2023-01-01T18:18:40.035Z,19.75
2023-01-01T18:21:11.381Z,15.63
2023-01-01T18:23:40.234Z,14.20
2023-01-01T18:26:09.736Z,15.30
2023-01-01T18:28:37.249Z,15.82
2023-01-01T18:31:16.886Z,15.43
2023-01-01T18:33:46.791Z,16.35
2023-01-01T18:36:17.080Z,13.02
2023-01-01T18:39:15.004Z,17.75
2023-01-01T18:42:14.316Z,15.50
2023-01-01T18:44:41.674Z,14.98
2023-01-01T18:47:17.982Z,16.15
2023-01-01T18:50:07.893Z,14.95
2023-01-01T18:52:35.364Z,15.40
2023-01-01T18:55:10.422Z,15.35
2023-01-01T18:57:38.369Z,16.15
2023-01-01T19:00:24.100Z,15.75
2023-01-01T19:03:02.942Z,15.40
2023-01-01T19:05:31.465Z,16.10
2023-01-01T19:08:07.733Z,15.85
2023-01-01T19:10:59.209Z,16.85
2023-01-01T19:13:38.104Z,18.95
2023-01-01T19:16:11.666Z,16.75
2023-01-01T19:18:44.145Z,16.77
2023-01-01T19:21:11.399Z,18.65
2023-01-01T19:23:55.052Z,17.60
2023-01-01T19:26:48.674Z,18.90
2023-01-01T19:29:24.201Z,17.58
2023-01-01T19:31:56.140Z,17.20
2023-01-01T19:34:25.018Z,17.75
2023-01-01T19:36:52.435Z,18.08
2023-01-01T19:39:19.917Z,18.23
2023-01-01T19:41:47.640Z,17.08
2023-01-01T19:44:19.845Z,18.23
2023-01-01T19:46:50.538Z,17.92
2023-01-01T19:49:17.792Z,18.90
2023-01-01T19:51:45.148Z,15.95
2023-01-01T19:54:12.430Z,15.88
2023-01-01T19:56:39.732Z,16.77
2023-01-01T19:59:08.379Z,16.88
2023-01-01T20:01:36.064Z,17.08
2023-01-01T20:04:03.693Z,19.80
2023-01-01T20:06:31.239Z,19.27
2023-01-01T20:08:58.585Z,21.15
2023-01-01T20:11:29.636Z,19.40
2023-01-01T20:13:57.010Z,21.77
2023-01-01T20:16:24.377Z,29.45
2023-01-01T20:18:51.690Z,22.58
2023-01-01T20:21:37.486Z,19.92
2023-01-01T20:24:05.141Z,25.67
2023-01-01T20:29:20.898Z,22.65
2023-01-01T20:31:53.526Z,22.90
2023-01-01T20:34:21.822Z,24.42
2023-01-01T20:37:08.152Z,23.63
2023-01-01T20:39:35.719Z,21.40
2023-01-01T20:42:03.540Z,22.30
2023-01-01T20:44:31.328Z,23.70
2023-01-01T20:46:58.922Z,23.02
2023-01-01T20:49:26.247Z,21.55
2023-01-01T20:51:54.086Z,22.85
2023-01-01T20:54:22.764Z,20.92
2023-01-01T20:56:50.692Z,23.50
2023-01-01T20:59:34.683Z,21.67
2023-01-01T21:02:04.095Z,19.85
2023-01-01T21:17:40.138Z,19.27
2023-01-01T21:20:08.438Z,22.08
2023-01-01T21:22:35.902Z,28.98
2023-01-01T21:25:49.919Z,21.52
2023-01-01T21:28:15.656Z,22.98
2023-01-01T21:30:49.896Z,21.88
2023-01-01T21:33:28.657Z,21.98
2023-01-01T21:35:56.505Z,28.38
2023-01-01T21:38:26.733Z,28.85
2023-01-01T21:40:59.534Z,23.85
2023-01-01T21:43:31.505Z,22.88
2023-01-01T21:46:07.701Z,22.25
2023-01-01T21:49:12.111Z,21.30
2023-01-01T21:51:59.824Z,23.33
2023-01-01T21:54:32.688Z,23.13
2023-01-01T21:57:01.960Z,27.48
2023-01-01T21:59:44.010Z,22.60
2023-01-01T22:02:14.376Z,21.52
2023-01-01T22:04:44.507Z,23.42
2023-01-01T22:10:16.590Z,26.05
2023-01-01T22:12:44.092Z,25.23
2023-01-01T22:15:32.863Z,21.38
2023-01-01T22:18:12.282Z,23.88
2023-01-01T22:20:43.178Z,22.70
2023-01-01T22:23:23.215Z,21.35
2023-01-01T22:25:51.485Z,26.13
2023-01-01T22:28:27.877Z,21.33
2023-01-01T22:31:00.794Z,20.63
2023-01-01T22:33:38.792Z,25.98
2023-01-01T22:36:17.803Z,24.27
2023-01-01T22:38:45.537Z,21.33
2023-01-01T22:41:14.889Z,22.65
2023-01-01T22:43:45.400Z,20.63
2023-01-01T22:46:38.990Z,20.33
2023-01-01T22:49:39.374Z,21.08
2023-01-01T22:52:07.887Z,22.17
2023-01-01T22:54:35.174Z,19.08
2023-01-01T22:57:02.631Z,19.38
2023-01-01T22:59:30.004Z,21.92
2023-01-01T23:01:57.388Z,18.75
2023-01-01T23:04:24.864Z,19.92
2023-01-01T23:06:52.960Z,19.40
2023-01-01T23:09:20.725Z,17.83
2023-01-01T23:11:47.988Z,19.55
2023-01-01T23:14:38.668Z,19.35
2023-01-01T23:17:06.634Z,19.85
2023-01-01T23:19:33.953Z,18.45
2023-01-01T23:22:03.610Z,18.17
2023-01-01T23:24:31.827Z,20.00
2023-01-01T23:27:00.505Z,19.23
2023-01-01T23:29:31.020Z,21.35
2023-01-01T23:31:59.201Z,17.00
2023-01-01T23:34:26.468Z,18.23
2023-01-01T23:36:55.344Z,17.40
2023-01-01T23:39:22.600Z,17.73
2023-01-01T23:41:51.033Z,19.38
2023-01-01T23:44:18.574Z,17.63
2023-01-01T23:46:46.265Z,15.80
2023-01-01T23:49:13.939Z,17.20
2023-01-01T23:51:41.462Z,16.35
2023-01-01T23:54:08.833Z,17.80
2023-01-01T23:56:36.352Z,16.15
2023-01-01T23:59:03.710Z,15.02
